• Join FlightAware (Why Join?)
  • Login
  • US Flag 
01:26AM EST


 

Airport Tracker/Info


-or-


 

Live Flight TrackerFlight Track Log ✈ DAL3678 ✈ 07-Apr-2013 ✈ KHSV - KATL

Flight Track Log - Related Links

Times and Time Zones

All times are in EDT time to prevent confusion due to time zone crossing. See the DAL3678 flight status page for this flight to view local times or setup timezone preferences in your user account.

Time Position Orientation Groundspeed Altitude Reporting Facility
EDT Latitude Longitude Course Direction KTS MPH feet Rate Location/Type
04:05PM 34.5264 -86.5808 107° East 274 315 7,900  Level Memphis Center
04:05PM 34.5219 -86.5550 102° East 296 341 8,400 1,800 Climbing Atlanta Center
04:06PM 34.4989 -86.4583 106° East 308 354 10,400 1,440 Climbing Atlanta Center
04:07PM 34.4717 -86.3494 107° East 319 367 11,300 1,140 Climbing Atlanta Center
04:08PM 34.4832 -86.2438 110° East  Level FlightAware Approximate
04:08PM 34.4406 -86.2300 107° East 346 398 12,700  Level Atlanta Center
04:09PM 34.4569 -86.1563 110° East  Level FlightAware Approximate
04:09PM 34.4094 -86.1008 106° East 373 429 12,900  Level Atlanta Center
04:10PM 34.3761 -85.9742 108° East 386 444 12,900  Level Atlanta Center
04:11PM 34.3383 -85.8400 109° East 405 466 12,900  Level Atlanta Center
04:12PM 34.2903 -85.6958 112° Southeast 412 474 13,000  Climbing Atlanta Center
04:13PM 34.2522 -85.5642 109° East 417 480 13,000  Level Atlanta Center
04:14PM 34.2042 -85.4028 110° East 417 480 13,000  Level Atlanta Center
04:15PM 34.1639 -85.2714 110° East 412 474 13,000  Level Atlanta Center
04:16PM 34.1275 -85.1456 109° East 405 466 13,000  Level Atlanta Center
04:17PM 34.0928 -85.0397 112° Southeast 357 411 13,000 -540 Level Atlanta Center
04:18PM 34.0350 -84.9561 130° Southeast 325 374 12,000 -1,380 Descending Atlanta Center
04:19PM 33.9622 -84.9256 161° South 292 336 10,300 -1,500 Descending Atlanta Center
04:20PM 33.8831 -84.9222 178° South 283 326 9,000 -840 Descending Atlanta Center
04:21PM 33.8183 -84.9189 178° South 273 314 8,700 -960 Descending Atlanta Center
04:22PM 33.7453 -84.8958 165° South 273 314 7,100 -1,320 Descending Atlanta Center
04:23PM 33.6789 -84.8625 157° South 268 308 6,100 -600 Descending Atlanta Center
04:24PM 33.6436 -84.7997 124° Southeast 236 272 6,000 -300 Descending Atlanta Center
04:25PM 33.6317 -84.7275 101° East 217 250 5,600 -960 Descending Atlanta Center
04:26PM 33.6333 -84.6333 89° East 229 264 4,100 -1,320 Descending Atlanta TRACON
04:27PM 33.6333 -84.5667 90° East 214 246 2,900 -1,080 Descending Atlanta TRACON
04:28PM 33.6333 -84.5000 90° East 173 199 1,900 -960 Descending Atlanta TRACON
04:30PM 33.6367 -84.4279 North  Level Estimated
04:37PM 33.6367 -84.4279 North  Level Estimated
04:38PM 33.6367 -84.4279 North  Level Estimated